sensor_id;sensor_type;location;lat;lon;timestamp;P1;durP1;ratioP1;P2;durP2;ratioP2
42246;SDS011;27913;42.722;23.268;2023-03-23T00:03:26;20.98;;;8.57;;
42246;SDS011;27913;42.722;23.268;2023-03-23T00:05:54;18.98;;;8.48;;
42246;SDS011;27913;42.722;23.268;2023-03-23T00:08:27;14.60;;;7.70;;
42246;SDS011;27913;42.722;23.268;2023-03-23T00:10:53;15.40;;;7.65;;
42246;SDS011;27913;42.722;23.268;2023-03-23T00:13:24;12.68;;;6.53;;
42246;SDS011;27913;42.722;23.268;2023-03-23T00:15:51;20.63;;;9.82;;
42246;SDS011;27913;42.722;23.268;2023-03-23T00:18:17;33.60;;;15.63;;
42246;SDS011;27913;42.722;23.268;2023-03-23T00:20:50;37.05;;;16.88;;
42246;SDS011;27913;42.722;23.268;2023-03-23T00:23:18;27.23;;;13.43;;
42246;SDS011;27913;42.722;23.268;2023-03-23T00:25:48;19.67;;;9.40;;
42246;SDS011;27913;42.722;23.268;2023-03-23T00:28:15;30.58;;;14.05;;
42246;SDS011;27913;42.722;23.268;2023-03-23T00:30:41;29.60;;;13.10;;
42246;SDS011;27913;42.722;23.268;2023-03-23T00:33:07;24.45;;;11.02;;
42246;SDS011;27913;42.722;23.268;2023-03-23T00:35:33;26.65;;;11.73;;
42246;SDS011;27913;42.722;23.268;2023-03-23T00:38:01;26.98;;;11.73;;
42246;SDS011;27913;42.722;23.268;2023-03-23T00:40:27;27.33;;;12.13;;
42246;SDS011;27913;42.722;23.268;2023-03-23T00:42:52;28.35;;;13.77;;
42246;SDS011;27913;42.722;23.268;2023-03-23T00:45:19;24.48;;;11.43;;
42246;SDS011;27913;42.722;23.268;2023-03-23T00:47:44;26.20;;;11.45;;
42246;SDS011;27913;42.722;23.268;2023-03-23T00:50:16;22.60;;;10.43;;
42246;SDS011;27913;42.722;23.268;2023-03-23T00:52:43;24.98;;;11.25;;
42246;SDS011;27913;42.722;23.268;2023-03-23T00:55:08;22.40;;;10.88;;
42246;SDS011;27913;42.722;23.268;2023-03-23T00:57:34;26.83;;;10.68;;
42246;SDS011;27913;42.722;23.268;2023-03-23T01:00:02;20.02;;;9.93;;
42246;SDS011;27913;42.722;23.268;2023-03-23T01:02:34;19.58;;;9.07;;
42246;SDS011;27913;42.722;23.268;2023-03-23T01:05:00;22.85;;;10.13;;
42246;SDS011;27913;42.722;23.268;2023-03-23T01:07:28;18.30;;;9.15;;
42246;SDS011;27913;42.722;23.268;2023-03-23T01:09:56;20.13;;;11.05;;
42246;SDS011;27913;42.722;23.268;2023-03-23T01:12:22;20.77;;;10.70;;
42246;SDS011;27913;42.722;23.268;2023-03-23T01:14:49;21.58;;;10.05;;
42246;SDS011;27913;42.722;23.268;2023-03-23T01:17:16;21.00;;;10.70;;
42246;SDS011;27913;42.722;23.268;2023-03-23T01:19:41;18.95;;;9.68;;
42246;SDS011;27913;42.722;23.268;2023-03-23T01:22:07;25.13;;;9.55;;
42246;SDS011;27913;42.722;23.268;2023-03-23T01:24:32;22.30;;;10.85;;
42246;SDS011;27913;42.722;23.268;2023-03-23T01:26:58;24.05;;;11.18;;
42246;SDS011;27913;42.722;23.268;2023-03-23T01:29:26;21.40;;;10.10;;
42246;SDS011;27913;42.722;23.268;2023-03-23T01:31:52;20.85;;;9.45;;
42246;SDS011;27913;42.722;23.268;2023-03-23T01:34:17;19.52;;;9.90;;
42246;SDS011;27913;42.722;23.268;2023-03-23T01:36:43;24.08;;;10.60;;
42246;SDS011;27913;42.722;23.268;2023-03-23T01:39:08;22.42;;;10.77;;
42246;SDS011;27913;42.722;23.268;2023-03-23T01:41:34;24.00;;;11.20;;
42246;SDS011;27913;42.722;23.268;2023-03-23T01:44:04;24.98;;;12.32;;
42246;SDS011;27913;42.722;23.268;2023-03-23T01:46:32;27.08;;;10.70;;
42246;SDS011;27913;42.722;23.268;2023-03-23T01:49:06;27.25;;;11.75;;
42246;SDS011;27913;42.722;23.268;2023-03-23T01:51:37;27.58;;;10.63;;
42246;SDS011;27913;42.722;23.268;2023-03-23T01:54:07;23.75;;;10.63;;
42246;SDS011;27913;42.722;23.268;2023-03-23T01:56:43;25.02;;;11.27;;
42246;SDS011;27913;42.722;23.268;2023-03-23T01:59:13;19.90;;;9.10;;
42246;SDS011;27913;42.722;23.268;2023-03-23T02:01:40;20.27;;;9.68;;
42246;SDS011;27913;42.722;23.268;2023-03-23T02:04:09;21.10;;;9.85;;
42246;SDS011;27913;42.722;23.268;2023-03-23T02:06:39;20.20;;;8.95;;
42246;SDS011;27913;42.722;23.268;2023-03-23T02:09:04;26.75;;;9.65;;
42246;SDS011;27913;42.722;23.268;2023-03-23T02:11:33;18.25;;;9.27;;
42246;SDS011;27913;42.722;23.268;2023-03-23T02:13:59;27.60;;;11.23;;
42246;SDS011;27913;42.722;23.268;2023-03-23T02:19:05;26.02;;;13.68;;
42246;SDS011;27913;42.722;23.268;2023-03-23T02:35:33;21.70;;;10.40;;
42246;SDS011;27913;42.722;23.268;2023-03-23T02:41:15;25.33;;;10.88;;
42246;SDS011;27913;42.722;23.268;2023-03-23T02:43:46;24.23;;;9.90;;
42246;SDS011;27913;42.722;23.268;2023-03-23T02:46:14;24.60;;;10.32;;
42246;SDS011;27913;42.722;23.268;2023-03-23T02:48:41;19.48;;;10.00;;
42246;SDS011;27913;42.722;23.268;2023-03-23T02:51:10;24.85;;;11.25;;
42246;SDS011;27913;42.722;23.268;2023-03-23T02:53:39;19.13;;;10.18;;
42246;SDS011;27913;42.722;23.268;2023-03-23T02:56:09;19.52;;;9.40;;
42246;SDS011;27913;42.722;23.268;2023-03-23T02:58:38;20.63;;;9.93;;
42246;SDS011;27913;42.722;23.268;2023-03-23T03:01:13;21.15;;;10.07;;
42246;SDS011;27913;42.722;23.268;2023-03-23T03:03:42;19.75;;;9.77;;
42246;SDS011;27913;42.722;23.268;2023-03-23T03:06:18;22.35;;;10.70;;
42246;SDS011;27913;42.722;23.268;2023-03-23T03:08:59;18.42;;;9.07;;
42246;SDS011;27913;42.722;23.268;2023-03-23T03:11:33;21.00;;;9.73;;
42246;SDS011;27913;42.722;23.268;2023-03-23T03:14:09;18.17;;;9.50;;
42246;SDS011;27913;42.722;23.268;2023-03-23T03:16:49;19.53;;;9.10;;
42246;SDS011;27913;42.722;23.268;2023-03-23T03:21:58;30.30;;;12.85;;
42246;SDS011;27913;42.722;23.268;2023-03-23T03:24:25;33.83;;;14.90;;
42246;SDS011;27913;42.722;23.268;2023-03-23T03:26:54;29.63;;;12.20;;
42246;SDS011;27913;42.722;23.268;2023-03-23T03:29:44;27.90;;;11.68;;
42246;SDS011;27913;42.722;23.268;2023-03-23T03:32:14;33.30;;;14.60;;
42246;SDS011;27913;42.722;23.268;2023-03-23T03:34:43;23.45;;;11.18;;
42246;SDS011;27913;42.722;23.268;2023-03-23T03:37:09;22.42;;;9.80;;
42246;SDS011;27913;42.722;23.268;2023-03-23T03:39:37;22.25;;;10.23;;
42246;SDS011;27913;42.722;23.268;2023-03-23T03:42:03;22.83;;;10.05;;
42246;SDS011;27913;42.722;23.268;2023-03-23T03:44:31;17.38;;;8.48;;
42246;SDS011;27913;42.722;23.268;2023-03-23T03:46:57;19.10;;;8.90;;
42246;SDS011;27913;42.722;23.268;2023-03-23T03:49:22;19.27;;;8.77;;
42246;SDS011;27913;42.722;23.268;2023-03-23T03:51:48;19.40;;;9.50;;
42246;SDS011;27913;42.722;23.268;2023-03-23T03:54:14;22.98;;;8.90;;
42246;SDS011;27913;42.722;23.268;2023-03-23T03:56:40;21.83;;;9.88;;
42246;SDS011;27913;42.722;23.268;2023-03-23T03:59:06;20.02;;;8.88;;
42246;SDS011;27913;42.722;23.268;2023-03-23T04:01:34;20.70;;;10.18;;
42246;SDS011;27913;42.722;23.268;2023-03-23T04:04:02;26.38;;;10.20;;
42246;SDS011;27913;42.722;23.268;2023-03-23T04:06:28;21.27;;;9.23;;
42246;SDS011;27913;42.722;23.268;2023-03-23T04:08:54;25.13;;;9.85;;
42246;SDS011;27913;42.722;23.268;2023-03-23T04:11:21;23.85;;;11.15;;
42246;SDS011;27913;42.722;23.268;2023-03-23T04:13:46;21.67;;;9.95;;
42246;SDS011;27913;42.722;23.268;2023-03-23T04:16:12;20.27;;;9.32;;
42246;SDS011;27913;42.722;23.268;2023-03-23T04:18:37;22.90;;;11.18;;
42246;SDS011;27913;42.722;23.268;2023-03-23T04:21:04;24.52;;;10.13;;
42246;SDS011;27913;42.722;23.268;2023-03-23T04:23:33;20.60;;;9.77;;
42246;SDS011;27913;42.722;23.268;2023-03-23T04:26:00;17.13;;;9.25;;
42246;SDS011;27913;42.722;23.268;2023-03-23T04:28:28;18.02;;;9.15;;
42246;SDS011;27913;42.722;23.268;2023-03-23T04:30:54;19.23;;;9.27;;
42246;SDS011;27913;42.722;23.268;2023-03-23T04:33:24;20.02;;;9.25;;
42246;SDS011;27913;42.722;23.268;2023-03-23T04:35:54;20.02;;;10.25;;
42246;SDS011;27913;42.722;23.268;2023-03-23T04:38:21;25.27;;;11.65;;
42246;SDS011;27913;42.722;23.268;2023-03-23T04:40:50;22.77;;;11.38;;
42246;SDS011;27913;42.722;23.268;2023-03-23T04:43:17;23.08;;;10.57;;
42246;SDS011;27913;42.722;23.268;2023-03-23T04:45:46;22.58;;;10.95;;
42246;SDS011;27913;42.722;23.268;2023-03-23T04:48:12;26.48;;;11.23;;
42246;SDS011;27913;42.722;23.268;2023-03-23T04:50:38;22.70;;;10.38;;
42246;SDS011;27913;42.722;23.268;2023-03-23T04:53:04;23.05;;;10.02;;
42246;SDS011;27913;42.722;23.268;2023-03-23T04:55:31;21.85;;;9.82;;
42246;SDS011;27913;42.722;23.268;2023-03-23T04:58:01;21.08;;;9.95;;
42246;SDS011;27913;42.722;23.268;2023-03-23T05:00:27;22.58;;;9.70;;
42246;SDS011;27913;42.722;23.268;2023-03-23T05:02:53;18.90;;;9.35;;
42246;SDS011;27913;42.722;23.268;2023-03-23T05:05:20;19.35;;;9.10;;
42246;SDS011;27913;42.722;23.268;2023-03-23T05:07:47;26.10;;;11.73;;
42246;SDS011;27913;42.722;23.268;2023-03-23T05:10:13;23.25;;;11.00;;
42246;SDS011;27913;42.722;23.268;2023-03-23T05:12:39;25.00;;;12.48;;
42246;SDS011;27913;42.722;23.268;2023-03-23T05:15:05;26.30;;;11.15;;
42246;SDS011;27913;42.722;23.268;2023-03-23T05:17:31;22.20;;;11.65;;
42246;SDS011;27913;42.722;23.268;2023-03-23T05:19:58;26.23;;;13.15;;
42246;SDS011;27913;42.722;23.268;2023-03-23T05:22:26;26.70;;;11.98;;
42246;SDS011;27913;42.722;23.268;2023-03-23T05:24:52;23.67;;;11.90;;
42246;SDS011;27913;42.722;23.268;2023-03-23T05:27:18;25.05;;;12.38;;
42246;SDS011;27913;42.722;23.268;2023-03-23T05:29:44;22.52;;;10.63;;
42246;SDS011;27913;42.722;23.268;2023-03-23T05:32:14;22.58;;;11.05;;
42246;SDS011;27913;42.722;23.268;2023-03-23T05:34:41;25.60;;;13.55;;
42246;SDS011;27913;42.722;23.268;2023-03-23T05:37:08;23.88;;;13.20;;
42246;SDS011;27913;42.722;23.268;2023-03-23T05:39:34;23.23;;;12.15;;
42246;SDS011;27913;42.722;23.268;2023-03-23T05:42:01;22.90;;;10.77;;
42246;SDS011;27913;42.722;23.268;2023-03-23T05:44:27;31.05;;;11.60;;
42246;SDS011;27913;42.722;23.268;2023-03-23T05:46:54;20.55;;;10.65;;
42246;SDS011;27913;42.722;23.268;2023-03-23T05:49:19;23.10;;;10.48;;
42246;SDS011;27913;42.722;23.268;2023-03-23T05:51:45;17.42;;;8.93;;
42246;SDS011;27913;42.722;23.268;2023-03-23T05:54:11;23.88;;;10.38;;
42246;SDS011;27913;42.722;23.268;2023-03-23T05:56:39;22.67;;;9.65;;
42246;SDS011;27913;42.722;23.268;2023-03-23T05:59:05;23.08;;;10.93;;
42246;SDS011;27913;42.722;23.268;2023-03-23T06:01:30;20.52;;;9.93;;
42246;SDS011;27913;42.722;23.268;2023-03-23T06:03:56;20.45;;;10.05;;
42246;SDS011;27913;42.722;23.268;2023-03-23T06:06:27;18.30;;;8.93;;
42246;SDS011;27913;42.722;23.268;2023-03-23T06:08:57;22.67;;;9.93;;
42246;SDS011;27913;42.722;23.268;2023-03-23T06:11:23;23.83;;;11.13;;
42246;SDS011;27913;42.722;23.268;2023-03-23T06:13:50;24.00;;;10.85;;
42246;SDS011;27913;42.722;23.268;2023-03-23T06:16:16;19.45;;;8.77;;
42246;SDS011;27913;42.722;23.268;2023-03-23T06:18:42;17.83;;;9.35;;
42246;SDS011;27913;42.722;23.268;2023-03-23T06:21:08;26.45;;;11.98;;
42246;SDS011;27913;42.722;23.268;2023-03-23T06:23:35;24.85;;;11.23;;
42246;SDS011;27913;42.722;23.268;2023-03-23T06:26:04;26.67;;;12.65;;
42246;SDS011;27913;42.722;23.268;2023-03-23T06:28:32;28.17;;;12.25;;
42246;SDS011;27913;42.722;23.268;2023-03-23T06:30:59;28.20;;;12.35;;
42246;SDS011;27913;42.722;23.268;2023-03-23T06:33:25;23.00;;;10.95;;
42246;SDS011;27913;42.722;23.268;2023-03-23T06:35:51;26.33;;;12.52;;
42246;SDS011;27913;42.722;23.268;2023-03-23T06:38:16;33.22;;;14.52;;
42246;SDS011;27913;42.722;23.268;2023-03-23T06:40:42;25.90;;;13.00;;
42246;SDS011;27913;42.722;23.268;2023-03-23T06:43:11;26.60;;;13.35;;
42246;SDS011;27913;42.722;23.268;2023-03-23T06:45:37;24.65;;;12.10;;
42246;SDS011;27913;42.722;23.268;2023-03-23T06:48:03;27.40;;;12.68;;
42246;SDS011;27913;42.722;23.268;2023-03-23T06:50:28;24.60;;;12.25;;
42246;SDS011;27913;42.722;23.268;2023-03-23T06:52:54;29.45;;;14.10;;
42246;SDS011;27913;42.722;23.268;2023-03-23T06:55:20;31.85;;;15.27;;
42246;SDS011;27913;42.722;23.268;2023-03-23T06:57:46;27.88;;;13.63;;
42246;SDS011;27913;42.722;23.268;2023-03-23T07:00:12;29.65;;;13.85;;
42246;SDS011;27913;42.722;23.268;2023-03-23T07:02:41;29.85;;;13.90;;
42246;SDS011;27913;42.722;23.268;2023-03-23T07:05:08;27.20;;;12.88;;
42246;SDS011;27913;42.722;23.268;2023-03-23T07:07:35;25.98;;;11.13;;
42246;SDS011;27913;42.722;23.268;2023-03-23T07:10:03;25.40;;;11.70;;
42246;SDS011;27913;42.722;23.268;2023-03-23T07:12:30;20.48;;;10.73;;
42246;SDS011;27913;42.722;23.268;2023-03-23T07:14:56;22.35;;;10.95;;
42246;SDS011;27913;42.722;23.268;2023-03-23T07:17:22;24.50;;;11.60;;
42246;SDS011;27913;42.722;23.268;2023-03-23T07:19:47;28.40;;;11.85;;
42246;SDS011;27913;42.722;23.268;2023-03-23T07:22:13;22.10;;;10.35;;
42246;SDS011;27913;42.722;23.268;2023-03-23T07:24:38;23.00;;;10.23;;
42246;SDS011;27913;42.722;23.268;2023-03-23T07:27:04;20.70;;;9.45;;
42246;SDS011;27913;42.722;23.268;2023-03-23T07:29:30;20.88;;;10.43;;
42246;SDS011;27913;42.722;23.268;2023-03-23T07:31:55;20.88;;;11.20;;
42246;SDS011;27913;42.722;23.268;2023-03-23T07:34:22;24.60;;;11.55;;
42246;SDS011;27913;42.722;23.268;2023-03-23T07:36:48;25.13;;;11.57;;
42246;SDS011;27913;42.722;23.268;2023-03-23T07:39:13;25.58;;;12.38;;
42246;SDS011;27913;42.722;23.268;2023-03-23T07:41:39;23.30;;;11.65;;
42246;SDS011;27913;42.722;23.268;2023-03-23T07:44:05;23.35;;;11.68;;
42246;SDS011;27913;42.722;23.268;2023-03-23T07:46:31;27.15;;;12.18;;
42246;SDS011;27913;42.722;23.268;2023-03-23T07:48:57;27.70;;;13.55;;
42246;SDS011;27913;42.722;23.268;2023-03-23T07:51:24;26.00;;;12.75;;
42246;SDS011;27913;42.722;23.268;2023-03-23T07:53:49;30.42;;;13.38;;
42246;SDS011;27913;42.722;23.268;2023-03-23T07:56:15;24.67;;;12.82;;
42246;SDS011;27913;42.722;23.268;2023-03-23T07:58:44;29.33;;;13.45;;
42246;SDS011;27913;42.722;23.268;2023-03-23T08:01:12;23.23;;;12.50;;
42246;SDS011;27913;42.722;23.268;2023-03-23T08:03:38;25.05;;;12.65;;
42246;SDS011;27913;42.722;23.268;2023-03-23T08:06:05;24.70;;;11.63;;
42246;SDS011;27913;42.722;23.268;2023-03-23T08:08:31;23.90;;;12.85;;
42246;SDS011;27913;42.722;23.268;2023-03-23T08:10:57;31.92;;;14.20;;
42246;SDS011;27913;42.722;23.268;2023-03-23T08:13:24;25.67;;;12.75;;
42246;SDS011;27913;42.722;23.268;2023-03-23T08:15:49;29.58;;;14.07;;
42246;SDS011;27913;42.722;23.268;2023-03-23T08:18:16;28.63;;;12.48;;
42246;SDS011;27913;42.722;23.268;2023-03-23T08:20:42;29.13;;;14.85;;
42246;SDS011;27913;42.722;23.268;2023-03-23T08:23:09;29.50;;;14.70;;
42246;SDS011;27913;42.722;23.268;2023-03-23T08:25:35;31.48;;;14.60;;
42246;SDS011;27913;42.722;23.268;2023-03-23T08:28:01;28.00;;;12.93;;
42246;SDS011;27913;42.722;23.268;2023-03-23T08:30:28;27.45;;;13.75;;
42246;SDS011;27913;42.722;23.268;2023-03-23T08:32:55;25.35;;;12.52;;
42246;SDS011;27913;42.722;23.268;2023-03-23T08:35:22;26.67;;;13.93;;
42246;SDS011;27913;42.722;23.268;2023-03-23T08:37:48;27.10;;;12.07;;
42246;SDS011;27913;42.722;23.268;2023-03-23T08:40:18;26.23;;;12.63;;
42246;SDS011;27913;42.722;23.268;2023-03-23T08:42:46;25.90;;;11.25;;
42246;SDS011;27913;42.722;23.268;2023-03-23T08:45:13;26.13;;;12.93;;
42246;SDS011;27913;42.722;23.268;2023-03-23T08:47:43;23.13;;;10.73;;
42246;SDS011;27913;42.722;23.268;2023-03-23T08:50:10;14.82;;;7.72;;
42246;SDS011;27913;42.722;23.268;2023-03-23T08:52:38;16.77;;;8.45;;
42246;SDS011;27913;42.722;23.268;2023-03-23T08:55:04;13.10;;;6.72;;
42246;SDS011;27913;42.722;23.268;2023-03-23T08:57:30;12.88;;;6.38;;
42246;SDS011;27913;42.722;23.268;2023-03-23T08:59:56;13.80;;;5.38;;
42246;SDS011;27913;42.722;23.268;2023-03-23T09:02:38;9.18;;;4.75;;
42246;SDS011;27913;42.722;23.268;2023-03-23T09:05:04;14.57;;;5.25;;
42246;SDS011;27913;42.722;23.268;2023-03-23T09:07:32;12.32;;;6.05;;
42246;SDS011;27913;42.722;23.268;2023-03-23T09:09:57;12.27;;;6.10;;
42246;SDS011;27913;42.722;23.268;2023-03-23T09:12:23;15.75;;;6.43;;
42246;SDS011;27913;42.722;23.268;2023-03-23T09:14:48;13.68;;;6.45;;
42246;SDS011;27913;42.722;23.268;2023-03-23T09:17:14;14.40;;;5.90;;
42246;SDS011;27913;42.722;23.268;2023-03-23T09:19:40;10.85;;;5.07;;
42246;SDS011;27913;42.722;23.268;2023-03-23T09:22:06;11.45;;;6.35;;
42246;SDS011;27913;42.722;23.268;2023-03-23T09:24:33;13.15;;;6.57;;
42246;SDS011;27913;42.722;23.268;2023-03-23T09:26:58;12.85;;;5.93;;
42246;SDS011;27913;42.722;23.268;2023-03-23T09:29:24;13.52;;;6.00;;
42246;SDS011;27913;42.722;23.268;2023-03-23T09:31:52;16.60;;;7.25;;
42246;SDS011;27913;42.722;23.268;2023-03-23T09:34:18;11.20;;;5.40;;
42246;SDS011;27913;42.722;23.268;2023-03-23T09:36:43;12.32;;;5.47;;
42246;SDS011;27913;42.722;23.268;2023-03-23T09:39:09;18.15;;;5.03;;
42246;SDS011;27913;42.722;23.268;2023-03-23T09:50:15;12.18;;;4.80;;
42246;SDS011;27913;42.722;23.268;2023-03-23T09:52:58;10.95;;;4.63;;
42246;SDS011;27913;42.722;23.268;2023-03-23T09:55:26;9.25;;;4.43;;
42246;SDS011;27913;42.722;23.268;2023-03-23T09:57:59;10.40;;;5.07;;
42246;SDS011;27913;42.722;23.268;2023-03-23T10:00:52;12.82;;;5.10;;
42246;SDS011;27913;42.722;23.268;2023-03-23T10:03:24;9.43;;;4.63;;
42246;SDS011;27913;42.722;23.268;2023-03-23T10:05:53;11.10;;;4.85;;
42246;SDS011;27913;42.722;23.268;2023-03-23T10:08:27;12.38;;;5.40;;
42246;SDS011;27913;42.722;23.268;2023-03-23T10:16:49;15.35;;;5.38;;
42246;SDS011;27913;42.722;23.268;2023-03-23T10:22:04;8.73;;;4.00;;
42246;SDS011;27913;42.722;23.268;2023-03-23T10:24:46;11.98;;;4.28;;
42246;SDS011;27913;42.722;23.268;2023-03-23T10:27:25;9.73;;;3.88;;
42246;SDS011;27913;42.722;23.268;2023-03-23T10:30:11;16.30;;;4.10;;
42246;SDS011;27913;42.722;23.268;2023-03-23T10:32:48;8.43;;;3.92;;
42246;SDS011;27913;42.722;23.268;2023-03-23T10:35:20;20.48;;;7.63;;
42246;SDS011;27913;42.722;23.268;2023-03-23T10:37:53;12.50;;;5.97;;
42246;SDS011;27913;42.722;23.268;2023-03-23T10:40:27;8.27;;;3.53;;
42246;SDS011;27913;42.722;23.268;2023-03-23T10:42:54;9.23;;;3.88;;
42246;SDS011;27913;42.722;23.268;2023-03-23T10:45:28;11.82;;;4.95;;
42246;SDS011;27913;42.722;23.268;2023-03-23T10:50:28;11.23;;;4.72;;
42246;SDS011;27913;42.722;23.268;2023-03-23T10:52:57;6.85;;;3.33;;
42246;SDS011;27913;42.722;23.268;2023-03-23T10:55:24;9.35;;;3.92;;
42246;SDS011;27913;42.722;23.268;2023-03-23T10:58:03;5.82;;;2.92;;
42246;SDS011;27913;42.722;23.268;2023-03-23T11:00:30;9.73;;;4.00;;
42246;SDS011;27913;42.722;23.268;2023-03-23T11:03:04;9.38;;;3.50;;
42246;SDS011;27913;42.722;23.268;2023-03-23T11:05:36;11.75;;;4.40;;
42246;SDS011;27913;42.722;23.268;2023-03-23T11:08:09;8.75;;;4.38;;
42246;SDS011;27913;42.722;23.268;2023-03-23T11:10:40;13.07;;;4.38;;
42246;SDS011;27913;42.722;23.268;2023-03-23T11:13:13;12.15;;;4.63;;
42246;SDS011;27913;42.722;23.268;2023-03-23T11:15:41;8.95;;;4.40;;
42246;SDS011;27913;42.722;23.268;2023-03-23T11:20:41;6.50;;;3.03;;
42246;SDS011;27913;42.722;23.268;2023-03-23T11:23:31;10.30;;;3.38;;
42246;SDS011;27913;42.722;23.268;2023-03-23T11:26:06;7.65;;;3.80;;
42246;SDS011;27913;42.722;23.268;2023-03-23T11:28:32;8.57;;;3.80;;
42246;SDS011;27913;42.722;23.268;2023-03-23T11:31:04;9.13;;;3.60;;
42246;SDS011;27913;42.722;23.268;2023-03-23T11:37:09;9.07;;;2.45;;
42246;SDS011;27913;42.722;23.268;2023-03-23T11:39:23;8.32;;;3.35;;
42246;SDS011;27913;42.722;23.268;2023-03-23T11:41:50;8.90;;;3.72;;
42246;SDS011;27913;42.722;23.268;2023-03-23T11:44:16;9.73;;;3.42;;
42246;SDS011;27913;42.722;23.268;2023-03-23T11:46:45;7.55;;;3.67;;
42246;SDS011;27913;42.722;23.268;2023-03-23T11:52:07;7.88;;;3.58;;
42246;SDS011;27913;42.722;23.268;2023-03-23T11:57:10;8.77;;;4.28;;
42246;SDS011;27913;42.722;23.268;2023-03-23T11:59:38;9.13;;;4.32;;
42246;SDS011;27913;42.722;23.268;2023-03-23T12:10:21;8.70;;;4.00;;
42246;SDS011;27913;42.722;23.268;2023-03-23T12:13:02;13.20;;;4.68;;
42246;SDS011;27913;42.722;23.268;2023-03-23T12:15:45;9.93;;;4.22;;
42246;SDS011;27913;42.722;23.268;2023-03-23T12:21:25;8.48;;;3.05;;
42246;SDS011;27913;42.722;23.268;2023-03-23T12:24:22;6.80;;;3.10;;
42246;SDS011;27913;42.722;23.268;2023-03-23T12:32:32;6.20;;;2.80;;
42246;SDS011;27913;42.722;23.268;2023-03-23T12:38:15;8.27;;;3.15;;
42246;SDS011;27913;42.722;23.268;2023-03-23T12:49:13;6.43;;;2.88;;
42246;SDS011;27913;42.722;23.268;2023-03-23T12:51:51;6.07;;;2.63;;
42246;SDS011;27913;42.722;23.268;2023-03-23T12:54:33;7.80;;;2.72;;
42246;SDS011;27913;42.722;23.268;2023-03-23T12:57:15;5.30;;;2.45;;
42246;SDS011;27913;42.722;23.268;2023-03-23T13:02:25;7.38;;;2.75;;
42246;SDS011;27913;42.722;23.268;2023-03-23T13:05:41;4.35;;;2.15;;
42246;SDS011;27913;42.722;23.268;2023-03-23T13:08:08;6.80;;;2.97;;
42246;SDS011;27913;42.722;23.268;2023-03-23T13:10:42;5.07;;;2.67;;
42246;SDS011;27913;42.722;23.268;2023-03-23T13:13:18;5.88;;;2.85;;
42246;SDS011;27913;42.722;23.268;2023-03-23T13:21:24;6.13;;;2.65;;
42246;SDS011;27913;42.722;23.268;2023-03-23T13:24:15;5.72;;;2.67;;
42246;SDS011;27913;42.722;23.268;2023-03-23T13:26:45;5.30;;;2.20;;
42246;SDS011;27913;42.722;23.268;2023-03-23T13:29:13;5.78;;;2.60;;
42246;SDS011;27913;42.722;23.268;2023-03-23T13:31:39;7.72;;;2.95;;
42246;SDS011;27913;42.722;23.268;2023-03-23T13:34:12;6.78;;;2.90;;
42246;SDS011;27913;42.722;23.268;2023-03-23T13:39:27;3.80;;;1.85;;
42246;SDS011;27913;42.722;23.268;2023-03-23T13:42:47;5.35;;;2.65;;
42246;SDS011;27913;42.722;23.268;2023-03-23T13:50:00;6.78;;;2.63;;
42246;SDS011;27913;42.722;23.268;2023-03-23T13:52:45;4.82;;;2.20;;
42246;SDS011;27913;42.722;23.268;2023-03-23T14:02:59;6.10;;;2.67;;
42246;SDS011;27913;42.722;23.268;2023-03-23T14:05:35;7.70;;;2.95;;
42246;SDS011;27913;42.722;23.268;2023-03-23T14:10:48;4.50;;;2.20;;
42246;SDS011;27913;42.722;23.268;2023-03-23T14:16:19;7.18;;;2.78;;
42246;SDS011;27913;42.722;23.268;2023-03-23T14:18:56;6.50;;;2.80;;
42246;SDS011;27913;42.722;23.268;2023-03-23T14:21:37;5.80;;;2.42;;
42246;SDS011;27913;42.722;23.268;2023-03-23T14:24:10;6.20;;;2.90;;
42246;SDS011;27913;42.722;23.268;2023-03-23T14:26:38;6.65;;;3.10;;
42246;SDS011;27913;42.722;23.268;2023-03-23T14:29:05;5.47;;;2.40;;
42246;SDS011;27913;42.722;23.268;2023-03-23T14:31:31;5.28;;;2.40;;
42246;SDS011;27913;42.722;23.268;2023-03-23T14:34:01;4.93;;;2.40;;
42246;SDS011;27913;42.722;23.268;2023-03-23T14:36:30;5.38;;;2.55;;
42246;SDS011;27913;42.722;23.268;2023-03-23T14:41:47;6.03;;;2.37;;
42246;SDS011;27913;42.722;23.268;2023-03-23T14:44:32;5.38;;;2.63;;
42246;SDS011;27913;42.722;23.268;2023-03-23T14:47:05;6.95;;;3.00;;
42246;SDS011;27913;42.722;23.268;2023-03-23T14:49:44;6.75;;;2.65;;
42246;SDS011;27913;42.722;23.268;2023-03-23T14:52:21;7.15;;;2.90;;
42246;SDS011;27913;42.722;23.268;2023-03-23T14:54:48;6.13;;;2.55;;
42246;SDS011;27913;42.722;23.268;2023-03-23T14:57:15;6.00;;;2.58;;
42246;SDS011;27913;42.722;23.268;2023-03-23T14:59:45;6.32;;;2.58;;
42246;SDS011;27913;42.722;23.268;2023-03-23T15:02:23;8.43;;;2.58;;
42246;SDS011;27913;42.722;23.268;2023-03-23T15:04:51;7.15;;;2.95;;
42246;SDS011;27913;42.722;23.268;2023-03-23T15:07:20;5.45;;;2.70;;
42246;SDS011;27913;42.722;23.268;2023-03-23T15:09:49;6.95;;;2.85;;
42246;SDS011;27913;42.722;23.268;2023-03-23T15:12:25;8.05;;;3.05;;
42246;SDS011;27913;42.722;23.268;2023-03-23T15:14:54;10.55;;;3.10;;
42246;SDS011;27913;42.722;23.268;2023-03-23T15:17:23;6.40;;;2.45;;
42246;SDS011;27913;42.722;23.268;2023-03-23T15:19:54;9.50;;;2.70;;
42246;SDS011;27913;42.722;23.268;2023-03-23T15:22:28;46.08;;;10.90;;
42246;SDS011;27913;42.722;23.268;2023-03-23T15:27:55;87.45;;;23.35;;
42246;SDS011;27913;42.722;23.268;2023-03-23T15:32:51;36.58;;;12.15;;
42246;SDS011;27913;42.722;23.268;2023-03-23T15:35:21;24.80;;;10.75;;
42246;SDS011;27913;42.722;23.268;2023-03-23T15:37:51;20.58;;;8.48;;
42246;SDS011;27913;42.722;23.268;2023-03-23T15:40:20;12.88;;;5.30;;
42246;SDS011;27913;42.722;23.268;2023-03-23T15:42:47;17.80;;;6.70;;
42246;SDS011;27913;42.722;23.268;2023-03-23T15:45:25;10.85;;;4.30;;
42246;SDS011;27913;42.722;23.268;2023-03-23T15:47:52;12.85;;;4.65;;
42246;SDS011;27913;42.722;23.268;2023-03-23T15:52:53;10.73;;;4.50;;
42246;SDS011;27913;42.722;23.268;2023-03-23T15:55:23;9.50;;;3.85;;
42246;SDS011;27913;42.722;23.268;2023-03-23T15:57:54;10.23;;;4.90;;
42246;SDS011;27913;42.722;23.268;2023-03-23T16:00:23;10.57;;;4.63;;
42246;SDS011;27913;42.722;23.268;2023-03-23T16:02:56;13.82;;;7.47;;
42246;SDS011;27913;42.722;23.268;2023-03-23T16:05:25;8.93;;;4.85;;
42246;SDS011;27913;42.722;23.268;2023-03-23T16:07:51;9.52;;;5.22;;
42246;SDS011;27913;42.722;23.268;2023-03-23T16:11:47;16.50;;;6.25;;
42246;SDS011;27913;42.722;23.268;2023-03-23T16:14:13;10.82;;;4.30;;
42246;SDS011;27913;42.722;23.268;2023-03-23T16:16:48;8.43;;;3.83;;
42246;SDS011;27913;42.722;23.268;2023-03-23T16:19:16;8.93;;;4.20;;
42246;SDS011;27913;42.722;23.268;2023-03-23T16:21:48;12.50;;;5.88;;
42246;SDS011;27913;42.722;23.268;2023-03-23T16:24:13;15.15;;;7.43;;
42246;SDS011;27913;42.722;23.268;2023-03-23T16:26:39;19.25;;;8.70;;
42246;SDS011;27913;42.722;23.268;2023-03-23T16:29:11;14.27;;;7.70;;
42246;SDS011;27913;42.722;23.268;2023-03-23T16:31:38;9.60;;;4.70;;
42246;SDS011;27913;42.722;23.268;2023-03-23T16:34:03;10.10;;;4.35;;
42246;SDS011;27913;42.722;23.268;2023-03-23T16:36:29;14.13;;;6.85;;